This is the latest recevied weather packets stored in our database for station/object AK6MW. If no packets are shown the sender has not sent any weather packets the latest 10 day(s).
| Time | Temp. | Humidity | Pressure | Rain* | Wind** | Luminosity | Snow |
|---|---|---|---|---|---|---|---|
| 1777572524 | 17.22° C | 55% | 1016.8 hPa | - | - | - | - |
| 1777568924 | 17.78° C | 52% | 1016.6 hPa | - | - | - | - |
| 1777559326 | 4.44° C | 99% | 1016.7 hPa | - | - | - | - |
| 1777558125 | 2.78° C | 99% | 1016.6 hPa | - | - | - | - |
| 1777555125 | 2.78° C | 99% | 1016.5 hPa | - | - | - | - |
| 1777553926 | 2.22° C | 99% | 1016.3 hPa | - | - | - | - |
| 1777552726 | 2.78° C | 99% | 1016.6 hPa | - | - | - | - |
| 1777547325 | 3.33° C | 99% | 1017.2 hPa | - | - | - | - |
| 1777543124 | 4.44° C | 96% | 1017.4 hPa | - | - | - | - |
| 1777542524 | 4.44° C | 97% | 1017.4 hPa | - | - | - | - |
| 1777540126 | 4.44° C | 95% | 1017.5 hPa | - | - | - | - |
| 1777537125 | 5.56° C | 94% | 1017.8 hPa | - | - | - | - |
| 1777532926 | 6.11° C | 92% | 1018.2 hPa | - | - | - | - |
| 1777529324 | 7.22° C | 89% | 1018 hPa | - | - | - | - |
| 1777527524 | 7.22° C | 87% | 1018.1 hPa | - | - | - | - |
| 1777526925 | 7.78° C | 87% | 1018.3 hPa | - | - | - | - |
| 1777523325 | 8.89° C | 82% | 1018.2 hPa | - | - | - | - |
| 1777521524 | 9.44° C | 82% | 1018.3 hPa | - | - | - | - |
| 1777519125 | 11.11° C | 75% | 1018 hPa | - | - | - | - |
| 1777517324 | 12.78° C | 66% | 1017.3 hPa | - | - | - | - |
| 1777515528 | 13.89° C | 62% | 1017.1 hPa | - | - | - | - |
| 1777513726 | 14.44° C | 60% | 1017 hPa | - | - | - | - |
| 1777505326 | 17.22° C | 51% | 1017.2 hPa | - | - | - | - |
| 1777499325 | 16.67° C | 56% | 1018 hPa | - | - | - | - |
| 1777492125 | 16.11° C | 60% | 1018.5 hPa | - | - | - | - |
* Rain since midnight (hover to see other rain measurements)
** Current wind speed in m/s (hover to see current wind gust speed)